sensor_id;sensor_type;location;lat;lon;timestamp;temperature;humidity
44431;DHT22;30135;47.866;-4.222;2023-02-13T00:00:14;8.60;90.00
44431;DHT22;30135;47.866;-4.222;2023-02-13T00:02:43;8.60;90.00
44431;DHT22;30135;47.866;-4.222;2023-02-13T00:05:09;8.50;89.90
44431;DHT22;30135;47.866;-4.222;2023-02-13T00:07:35;8.50;90.00
44431;DHT22;30135;47.866;-4.222;2023-02-13T00:10:01;8.50;90.00
44431;DHT22;30135;47.866;-4.222;2023-02-13T00:12:28;8.50;90.00
44431;DHT22;30135;47.866;-4.222;2023-02-13T00:14:54;8.50;90.00
44431;DHT22;30135;47.866;-4.222;2023-02-13T00:17:20;8.50;90.00
44431;DHT22;30135;47.866;-4.222;2023-02-13T00:19:46;8.50;90.00
44431;DHT22;30135;47.866;-4.222;2023-02-13T00:22:12;8.40;89.90
44431;DHT22;30135;47.866;-4.222;2023-02-13T00:24:38;8.40;90.00
44431;DHT22;30135;47.866;-4.222;2023-02-13T00:27:04;8.40;90.00
44431;DHT22;30135;47.866;-4.222;2023-02-13T00:29:30;8.40;90.00
44431;DHT22;30135;47.866;-4.222;2023-02-13T00:31:56;8.40;90.00
44431;DHT22;30135;47.866;-4.222;2023-02-13T00:34:22;8.30;90.00
44431;DHT22;30135;47.866;-4.222;2023-02-13T00:36:48;8.30;90.00
44431;DHT22;30135;47.866;-4.222;2023-02-13T00:39:17;8.40;90.00
44431;DHT22;30135;47.866;-4.222;2023-02-13T00:41:43;8.30;90.00
44431;DHT22;30135;47.866;-4.222;2023-02-13T00:44:09;8.30;90.00
44431;DHT22;30135;47.866;-4.222;2023-02-13T00:46:35;8.30;90.00
44431;DHT22;30135;47.866;-4.222;2023-02-13T00:49:03;8.20;90.00
44431;DHT22;30135;47.866;-4.222;2023-02-13T00:51:32;8.20;90.00
44431;DHT22;30135;47.866;-4.222;2023-02-13T00:53:58;8.20;90.00
44431;DHT22;30135;47.866;-4.222;2023-02-13T00:56:24;8.20;90.00
44431;DHT22;30135;47.866;-4.222;2023-02-13T00:58:50;8.20;90.00
44431;DHT22;30135;47.866;-4.222;2023-02-13T01:01:16;8.10;90.00
44431;DHT22;30135;47.866;-4.222;2023-02-13T01:03:42;8.10;90.00
44431;DHT22;30135;47.866;-4.222;2023-02-13T01:06:08;8.10;90.00
44431;DHT22;30135;47.866;-4.222;2023-02-13T01:08:37;8.10;90.00
44431;DHT22;30135;47.866;-4.222;2023-02-13T01:11:04;8.10;90.00
44431;DHT22;30135;47.866;-4.222;2023-02-13T01:13:30;8.10;90.00
44431;DHT22;30135;47.866;-4.222;2023-02-13T01:15:56;8.00;90.00
44431;DHT22;30135;47.866;-4.222;2023-02-13T01:18:22;8.00;90.00
44431;DHT22;30135;47.866;-4.222;2023-02-13T01:21:01;8.00;90.00
44431;DHT22;30135;47.866;-4.222;2023-02-13T01:23:33;8.00;90.00
44431;DHT22;30135;47.866;-4.222;2023-02-13T01:26:04;8.00;90.10
44431;DHT22;30135;47.866;-4.222;2023-02-13T01:28:31;8.00;90.10
44431;DHT22;30135;47.866;-4.222;2023-02-13T01:30:57;8.00;90.10
44431;DHT22;30135;47.866;-4.222;2023-02-13T01:33:25;7.90;90.10
44431;DHT22;30135;47.866;-4.222;2023-02-13T01:35:54;7.90;90.10
44431;DHT22;30135;47.866;-4.222;2023-02-13T01:38:21;7.90;90.10
44431;DHT22;30135;47.866;-4.222;2023-02-13T01:40:48;7.90;90.10
44431;DHT22;30135;47.866;-4.222;2023-02-13T01:43:16;7.90;90.20
44431;DHT22;30135;47.866;-4.222;2023-02-13T01:45:45;7.90;90.20
44431;DHT22;30135;47.866;-4.222;2023-02-13T01:48:18;7.90;90.20
44431;DHT22;30135;47.866;-4.222;2023-02-13T01:50:54;7.90;90.20
44431;DHT22;30135;47.866;-4.222;2023-02-13T01:56:34;7.90;90.20
44431;DHT22;30135;47.866;-4.222;2023-02-13T01:59:08;7.80;90.10
44431;DHT22;30135;47.866;-4.222;2023-02-13T02:01:36;7.80;90.10
44431;DHT22;30135;47.866;-4.222;2023-02-13T02:04:21;7.80;90.10
44431;DHT22;30135;47.866;-4.222;2023-02-13T02:07:02;7.80;90.20
44431;DHT22;30135;47.866;-4.222;2023-02-13T02:09:34;7.80;90.10
44431;DHT22;30135;47.866;-4.222;2023-02-13T02:14:44;7.70;90.20
44431;DHT22;30135;47.866;-4.222;2023-02-13T02:17:11;7.70;90.20
44431;DHT22;30135;47.866;-4.222;2023-02-13T02:28:29;7.70;90.30
44431;DHT22;30135;47.866;-4.222;2023-02-13T02:39:59;7.60;90.30
44431;DHT22;30135;47.866;-4.222;2023-02-13T02:42:43;7.60;90.40
44431;DHT22;30135;47.866;-4.222;2023-02-13T02:45:31;7.60;90.40
44431;DHT22;30135;47.866;-4.222;2023-02-13T02:51:18;7.60;90.40
44431;DHT22;30135;47.866;-4.222;2023-02-13T02:54:11;7.60;90.50
44431;DHT22;30135;47.866;-4.222;2023-02-13T02:57:23;7.50;90.50
44431;DHT22;30135;47.866;-4.222;2023-02-13T02:59:50;7.50;90.50
44431;DHT22;30135;47.866;-4.222;2023-02-13T03:02:36;7.50;90.50
44431;DHT22;30135;47.866;-4.222;2023-02-13T03:05:23;7.50;90.60
44431;DHT22;30135;47.866;-4.222;2023-02-13T03:08:20;7.50;90.60
44431;DHT22;30135;47.866;-4.222;2023-02-13T03:11:06;7.50;90.60
44431;DHT22;30135;47.866;-4.222;2023-02-13T03:13:51;7.50;90.60
44431;DHT22;30135;47.866;-4.222;2023-02-13T03:16:23;7.50;90.70
44431;DHT22;30135;47.866;-4.222;2023-02-13T03:19:21;7.50;90.70
44431;DHT22;30135;47.866;-4.222;2023-02-13T03:22:30;7.50;90.70
44431;DHT22;30135;47.866;-4.222;2023-02-13T03:30:42;7.50;90.80
44431;DHT22;30135;47.866;-4.222;2023-02-13T03:36:16;7.50;90.80
44431;DHT22;30135;47.866;-4.222;2023-02-13T03:39:20;7.50;90.80
44431;DHT22;30135;47.866;-4.222;2023-02-13T03:41:59;7.40;90.80
44431;DHT22;30135;47.866;-4.222;2023-02-13T03:44:40;7.40;90.80
44431;DHT22;30135;47.866;-4.222;2023-02-13T03:47:10;7.40;90.90
44431;DHT22;30135;47.866;-4.222;2023-02-13T03:49:48;7.40;90.90
44431;DHT22;30135;47.866;-4.222;2023-02-13T03:55:21;7.40;90.90
44431;DHT22;30135;47.866;-4.222;2023-02-13T04:01:19;7.40;91.00
44431;DHT22;30135;47.866;-4.222;2023-02-13T04:03:56;7.40;91.00
44431;DHT22;30135;47.866;-4.222;2023-02-13T04:06:31;7.40;91.00
44431;DHT22;30135;47.866;-4.222;2023-02-13T04:08:59;7.40;91.00
44431;DHT22;30135;47.866;-4.222;2023-02-13T04:11:38;7.40;91.10
44431;DHT22;30135;47.866;-4.222;2023-02-13T04:17:05;7.40;91.20
44431;DHT22;30135;47.866;-4.222;2023-02-13T04:19:33;7.40;91.20
44431;DHT22;30135;47.866;-4.222;2023-02-13T04:22:01;7.40;91.30
44431;DHT22;30135;47.866;-4.222;2023-02-13T04:24:28;7.40;91.30
44431;DHT22;30135;47.866;-4.222;2023-02-13T04:26:54;7.40;91.30
44431;DHT22;30135;47.866;-4.222;2023-02-13T04:29:22;7.40;91.30
44431;DHT22;30135;47.866;-4.222;2023-02-13T04:31:49;7.40;91.30
44431;DHT22;30135;47.866;-4.222;2023-02-13T04:34:15;7.40;91.30
44431;DHT22;30135;47.866;-4.222;2023-02-13T04:36:41;7.40;91.20
44431;DHT22;30135;47.866;-4.222;2023-02-13T04:39:07;7.40;91.20
44431;DHT22;30135;47.866;-4.222;2023-02-13T04:41:33;7.40;91.20
44431;DHT22;30135;47.866;-4.222;2023-02-13T04:43:59;7.40;91.20
44431;DHT22;30135;47.866;-4.222;2023-02-13T04:46:25;7.40;91.20
44431;DHT22;30135;47.866;-4.222;2023-02-13T04:48:51;7.30;91.10
44431;DHT22;30135;47.866;-4.222;2023-02-13T04:51:17;7.30;91.10
44431;DHT22;30135;47.866;-4.222;2023-02-13T04:53:43;7.30;91.10
44431;DHT22;30135;47.866;-4.222;2023-02-13T04:56:09;7.30;91.10
44431;DHT22;30135;47.866;-4.222;2023-02-13T04:58:35;7.30;91.10
44431;DHT22;30135;47.866;-4.222;2023-02-13T05:01:01;7.30;91.10
44431;DHT22;30135;47.866;-4.222;2023-02-13T05:03:27;7.30;91.10
44431;DHT22;30135;47.866;-4.222;2023-02-13T05:05:53;7.30;91.10
44431;DHT22;30135;47.866;-4.222;2023-02-13T05:08:19;7.20;91.00
44431;DHT22;30135;47.866;-4.222;2023-02-13T05:10:45;7.30;91.00
44431;DHT22;30135;47.866;-4.222;2023-02-13T05:13:11;7.20;91.00
44431;DHT22;30135;47.866;-4.222;2023-02-13T05:15:38;7.20;91.00
44431;DHT22;30135;47.866;-4.222;2023-02-13T05:18:04;7.20;91.00
44431;DHT22;30135;47.866;-4.222;2023-02-13T05:20:30;7.20;91.00
44431;DHT22;30135;47.866;-4.222;2023-02-13T05:22:56;7.20;91.00
44431;DHT22;30135;47.866;-4.222;2023-02-13T05:25:41;7.10;91.00
44431;DHT22;30135;47.866;-4.222;2023-02-13T05:28:07;7.10;91.00
44431;DHT22;30135;47.866;-4.222;2023-02-13T05:30:56;7.10;91.00
44431;DHT22;30135;47.866;-4.222;2023-02-13T05:33:22;7.10;91.00
44431;DHT22;30135;47.866;-4.222;2023-02-13T05:35:48;7.10;91.00
44431;DHT22;30135;47.866;-4.222;2023-02-13T05:38:14;7.00;90.90
44431;DHT22;30135;47.866;-4.222;2023-02-13T05:40:40;7.00;91.00
44431;DHT22;30135;47.866;-4.222;2023-02-13T05:43:06;7.00;90.80
44431;DHT22;30135;47.866;-4.222;2023-02-13T05:45:32;7.00;90.80
44431;DHT22;30135;47.866;-4.222;2023-02-13T05:47:58;7.00;90.80
44431;DHT22;30135;47.866;-4.222;2023-02-13T05:50:24;6.90;90.80
44431;DHT22;30135;47.866;-4.222;2023-02-13T05:52:50;6.90;90.80
44431;DHT22;30135;47.866;-4.222;2023-02-13T05:55:16;6.90;90.80
44431;DHT22;30135;47.866;-4.222;2023-02-13T05:57:42;6.90;90.80
44431;DHT22;30135;47.866;-4.222;2023-02-13T06:00:08;6.90;90.80
44431;DHT22;30135;47.866;-4.222;2023-02-13T06:02:35;6.80;90.80
44431;DHT22;30135;47.866;-4.222;2023-02-13T06:05:01;6.80;90.80
44431;DHT22;30135;47.866;-4.222;2023-02-13T06:07:26;6.80;91.10
44431;DHT22;30135;47.866;-4.222;2023-02-13T06:09:53;6.80;90.80
44431;DHT22;30135;47.866;-4.222;2023-02-13T06:12:19;6.70;90.70
44431;DHT22;30135;47.866;-4.222;2023-02-13T06:14:45;6.70;91.10
44431;DHT22;30135;47.866;-4.222;2023-02-13T06:17:11;6.70;90.70
44431;DHT22;30135;47.866;-4.222;2023-02-13T06:19:37;6.70;90.70
44431;DHT22;30135;47.866;-4.222;2023-02-13T06:22:03;6.60;90.60
44431;DHT22;30135;47.866;-4.222;2023-02-13T06:24:29;6.60;90.60
44431;DHT22;30135;47.866;-4.222;2023-02-13T06:26:58;6.60;90.60
44431;DHT22;30135;47.866;-4.222;2023-02-13T06:29:24;6.50;90.60
44431;DHT22;30135;47.866;-4.222;2023-02-13T06:31:50;6.50;90.60
44431;DHT22;30135;47.866;-4.222;2023-02-13T06:34:15;6.50;90.60
44431;DHT22;30135;47.866;-4.222;2023-02-13T06:36:42;6.40;90.60
44431;DHT22;30135;47.866;-4.222;2023-02-13T06:39:09;6.50;90.60
44431;DHT22;30135;47.866;-4.222;2023-02-13T06:41:35;6.40;90.50
44431;DHT22;30135;47.866;-4.222;2023-02-13T06:44:01;6.40;90.50
44431;DHT22;30135;47.866;-4.222;2023-02-13T06:46:27;6.40;90.50
44431;DHT22;30135;47.866;-4.222;2023-02-13T06:48:53;6.40;90.50
44431;DHT22;30135;47.866;-4.222;2023-02-13T06:51:19;6.40;90.50
44431;DHT22;30135;47.866;-4.222;2023-02-13T06:53:45;6.40;90.50
44431;DHT22;30135;47.866;-4.222;2023-02-13T06:56:11;6.30;90.50
44431;DHT22;30135;47.866;-4.222;2023-02-13T06:58:37;6.30;90.50
44431;DHT22;30135;47.866;-4.222;2023-02-13T07:01:05;6.30;90.50
44431;DHT22;30135;47.866;-4.222;2023-02-13T07:03:31;6.30;90.50
44431;DHT22;30135;47.866;-4.222;2023-02-13T07:05:56;6.30;90.50
44431;DHT22;30135;47.866;-4.222;2023-02-13T07:08:22;6.30;90.60
44431;DHT22;30135;47.866;-4.222;2023-02-13T07:10:48;6.20;90.60
44431;DHT22;30135;47.866;-4.222;2023-02-13T07:13:15;6.20;90.60
44431;DHT22;30135;47.866;-4.222;2023-02-13T07:15:41;6.20;90.70
44431;DHT22;30135;47.866;-4.222;2023-02-13T07:18:07;6.20;90.70
44431;DHT22;30135;47.866;-4.222;2023-02-13T07:20:33;6.20;90.70
44431;DHT22;30135;47.866;-4.222;2023-02-13T07:23:04;6.20;90.70
44431;DHT22;30135;47.866;-4.222;2023-02-13T07:25:31;6.20;90.70
44431;DHT22;30135;47.866;-4.222;2023-02-13T07:28:05;6.20;90.70
44431;DHT22;30135;47.866;-4.222;2023-02-13T07:30:32;6.20;90.80
44431;DHT22;30135;47.866;-4.222;2023-02-13T07:33:05;6.20;90.80
44431;DHT22;30135;47.866;-4.222;2023-02-13T07:35:31;6.20;90.80
44431;DHT22;30135;47.866;-4.222;2023-02-13T07:37:57;6.20;90.80
44431;DHT22;30135;47.866;-4.222;2023-02-13T07:40:25;6.20;90.90
44431;DHT22;30135;47.866;-4.222;2023-02-13T07:42:51;6.20;90.90
44431;DHT22;30135;47.866;-4.222;2023-02-13T07:45:17;6.20;91.00
44431;DHT22;30135;47.866;-4.222;2023-02-13T07:47:43;6.20;91.00
44431;DHT22;30135;47.866;-4.222;2023-02-13T07:50:09;6.20;91.00
44431;DHT22;30135;47.866;-4.222;2023-02-13T07:52:36;6.20;91.00
44431;DHT22;30135;47.866;-4.222;2023-02-13T07:55:03;6.20;91.10
44431;DHT22;30135;47.866;-4.222;2023-02-13T07:57:30;6.20;91.10
44431;DHT22;30135;47.866;-4.222;2023-02-13T07:59:56;6.20;91.10
44431;DHT22;30135;47.866;-4.222;2023-02-13T08:02:23;6.20;91.10
44431;DHT22;30135;47.866;-4.222;2023-02-13T08:04:49;6.20;91.10
44431;DHT22;30135;47.866;-4.222;2023-02-13T08:07:15;6.30;91.20
44431;DHT22;30135;47.866;-4.222;2023-02-13T08:09:45;6.30;91.20
44431;DHT22;30135;47.866;-4.222;2023-02-13T08:12:31;6.30;91.20
44431;DHT22;30135;47.866;-4.222;2023-02-13T08:15:00;6.30;91.20
44431;DHT22;30135;47.866;-4.222;2023-02-13T08:17:26;6.30;91.20
44431;DHT22;30135;47.866;-4.222;2023-02-13T08:19:52;6.30;91.20
44431;DHT22;30135;47.866;-4.222;2023-02-13T08:22:18;6.30;91.30
44431;DHT22;30135;47.866;-4.222;2023-02-13T08:24:44;6.30;91.30
44431;DHT22;30135;47.866;-4.222;2023-02-13T08:27:13;6.30;91.30
44431;DHT22;30135;47.866;-4.222;2023-02-13T08:29:39;6.40;91.40
44431;DHT22;30135;47.866;-4.222;2023-02-13T08:32:06;6.40;91.40
44431;DHT22;30135;47.866;-4.222;2023-02-13T08:34:32;6.40;91.40
44431;DHT22;30135;47.866;-4.222;2023-02-13T08:36:58;6.40;91.40
44431;DHT22;30135;47.866;-4.222;2023-02-13T08:39:25;6.40;91.40
44431;DHT22;30135;47.866;-4.222;2023-02-13T08:41:51;6.40;91.40
44431;DHT22;30135;47.866;-4.222;2023-02-13T08:44:17;6.40;91.50
44431;DHT22;30135;47.866;-4.222;2023-02-13T08:46:45;6.40;91.50
44431;DHT22;30135;47.866;-4.222;2023-02-13T08:49:11;6.40;91.60
44431;DHT22;30135;47.866;-4.222;2023-02-13T08:51:44;6.40;91.60
44431;DHT22;30135;47.866;-4.222;2023-02-13T08:54:10;6.50;91.70
44431;DHT22;30135;47.866;-4.222;2023-02-13T08:56:36;6.50;91.80
44431;DHT22;30135;47.866;-4.222;2023-02-13T08:59:02;6.50;91.90
44431;DHT22;30135;47.866;-4.222;2023-02-13T09:01:28;6.50;92.00
44431;DHT22;30135;47.866;-4.222;2023-02-13T09:03:54;6.60;92.10
44431;DHT22;30135;47.866;-4.222;2023-02-13T09:06:27;6.60;92.20
44431;DHT22;30135;47.866;-4.222;2023-02-13T09:08:53;6.60;92.30
44431;DHT22;30135;47.866;-4.222;2023-02-13T09:11:20;6.70;92.40
44431;DHT22;30135;47.866;-4.222;2023-02-13T09:13:48;6.70;92.50
44431;DHT22;30135;47.866;-4.222;2023-02-13T09:16:17;6.70;92.70
44431;DHT22;30135;47.866;-4.222;2023-02-13T09:18:43;6.70;92.90
44431;DHT22;30135;47.866;-4.222;2023-02-13T09:21:11;6.80;93.00
44431;DHT22;30135;47.866;-4.222;2023-02-13T09:23:39;6.80;93.10
44431;DHT22;30135;47.866;-4.222;2023-02-13T09:26:10;6.90;93.20
44431;DHT22;30135;47.866;-4.222;2023-02-13T09:28:38;6.90;93.30
44431;DHT22;30135;47.866;-4.222;2023-02-13T09:31:15;7.00;93.30
44431;DHT22;30135;47.866;-4.222;2023-02-13T09:33:44;7.00;93.40
44431;DHT22;30135;47.866;-4.222;2023-02-13T09:36:14;7.00;93.40
44431;DHT22;30135;47.866;-4.222;2023-02-13T09:38:45;7.00;93.50
44431;DHT22;30135;47.866;-4.222;2023-02-13T09:41:17;7.10;93.60
44431;DHT22;30135;47.866;-4.222;2023-02-13T09:43:52;7.10;93.60
44431;DHT22;30135;47.866;-4.222;2023-02-13T09:49:19;7.20;93.80
44431;DHT22;30135;47.866;-4.222;2023-02-13T09:51:55;7.30;94.00
44431;DHT22;30135;47.866;-4.222;2023-02-13T09:54:22;7.30;93.90
44431;DHT22;30135;47.866;-4.222;2023-02-13T09:57:07;7.40;93.90
44431;DHT22;30135;47.866;-4.222;2023-02-13T10:05:34;7.50;94.10
44431;DHT22;30135;47.866;-4.222;2023-02-13T10:11:50;7.50;94.00
44431;DHT22;30135;47.866;-4.222;2023-02-13T10:14:42;7.50;94.00
44431;DHT22;30135;47.866;-4.222;2023-02-13T10:17:46;7.60;94.20
44431;DHT22;30135;47.866;-4.222;2023-02-13T10:20:42;7.60;94.30
44431;DHT22;30135;47.866;-4.222;2023-02-13T10:26:02;7.70;94.30
44431;DHT22;30135;47.866;-4.222;2023-02-13T10:28:41;7.80;94.30
44431;DHT22;30135;47.866;-4.222;2023-02-13T10:31:20;7.80;94.20
44431;DHT22;30135;47.866;-4.222;2023-02-13T10:33:55;7.90;94.40
44431;DHT22;30135;47.866;-4.222;2023-02-13T10:36:26;7.90;94.10
44431;DHT22;30135;47.866;-4.222;2023-02-13T10:41:43;8.00;94.40
44431;DHT22;30135;47.866;-4.222;2023-02-13T10:49:36;8.10;94.30
44431;DHT22;30135;47.866;-4.222;2023-02-13T10:55:54;8.30;94.40
44431;DHT22;30135;47.866;-4.222;2023-02-13T11:01:55;8.40;94.00
44431;DHT22;30135;47.866;-4.222;2023-02-13T11:04:22;8.40;94.10
44431;DHT22;30135;47.866;-4.222;2023-02-13T11:06:59;8.50;94.20
44431;DHT22;30135;47.866;-4.222;2023-02-13T11:09:29;8.60;94.20
44431;DHT22;30135;47.866;-4.222;2023-02-13T11:12:32;8.60;94.10
44431;DHT22;30135;47.866;-4.222;2023-02-13T11:15:19;8.70;94.10
44431;DHT22;30135;47.866;-4.222;2023-02-13T11:17:45;8.80;94.30
44431;DHT22;30135;47.866;-4.222;2023-02-13T11:20:37;8.80;94.20
44431;DHT22;30135;47.866;-4.222;2023-02-13T11:25:58;9.00;94.10
44431;DHT22;30135;47.866;-4.222;2023-02-13T11:28:30;9.00;94.10
44431;DHT22;30135;47.866;-4.222;2023-02-13T11:31:39;9.10;94.00
44431;DHT22;30135;47.866;-4.222;2023-02-13T11:33:55;9.10;94.30
44431;DHT22;30135;47.866;-4.222;2023-02-13T11:36:27;9.20;93.90
44431;DHT22;30135;47.866;-4.222;2023-02-13T11:39:03;9.20;93.90
44431;DHT22;30135;47.866;-4.222;2023-02-13T11:41:38;9.30;94.00
44431;DHT22;30135;47.866;-4.222;2023-02-13T11:44:27;9.40;93.90
44431;DHT22;30135;47.866;-4.222;2023-02-13T11:46:59;9.40;93.80
44431;DHT22;30135;47.866;-4.222;2023-02-13T11:49:30;9.50;94.10
44431;DHT22;30135;47.866;-4.222;2023-02-13T11:52:00;9.50;93.80
44431;DHT22;30135;47.866;-4.222;2023-02-13T11:54:32;9.60;93.80
44431;DHT22;30135;47.866;-4.222;2023-02-13T11:57:22;9.60;93.80
44431;DHT22;30135;47.866;-4.222;2023-02-13T11:59:53;9.70;93.70
44431;DHT22;30135;47.866;-4.222;2023-02-13T12:02:29;9.70;93.70
44431;DHT22;30135;47.866;-4.222;2023-02-13T12:05:24;9.70;93.70
44431;DHT22;30135;47.866;-4.222;2023-02-13T12:07:58;9.80;93.70
44431;DHT22;30135;47.866;-4.222;2023-02-13T12:10:30;9.80;93.70
44431;DHT22;30135;47.866;-4.222;2023-02-13T12:13:20;9.80;93.80
44431;DHT22;30135;47.866;-4.222;2023-02-13T12:15:59;9.80;93.90
44431;DHT22;30135;47.866;-4.222;2023-02-13T12:18:34;9.80;93.70
44431;DHT22;30135;47.866;-4.222;2023-02-13T12:21:21;9.90;93.90
44431;DHT22;30135;47.866;-4.222;2023-02-13T12:25:44;9.90;93.90
44431;DHT22;30135;47.866;-4.222;2023-02-13T12:33:49;10.00;94.20
44431;DHT22;30135;47.866;-4.222;2023-02-13T12:36:41;10.00;94.30
44431;DHT22;30135;47.866;-4.222;2023-02-13T12:39:38;10.00;94.30
44431;DHT22;30135;47.866;-4.222;2023-02-13T12:42:40;10.10;94.40
44431;DHT22;30135;47.866;-4.222;2023-02-13T12:45:31;10.10;94.50
44431;DHT22;30135;47.866;-4.222;2023-02-13T13:07:06;10.40;95.60
44431;DHT22;30135;47.866;-4.222;2023-02-13T13:09:51;10.40;95.40
44431;DHT22;30135;47.866;-4.222;2023-02-13T13:27:29;10.60;95.80
44431;DHT22;30135;47.866;-4.222;2023-02-13T13:30:04;10.60;96.20
44431;DHT22;30135;47.866;-4.222;2023-02-13T13:32:39;10.60;95.80
44431;DHT22;30135;47.866;-4.222;2023-02-13T13:35:15;10.60;95.90
44431;DHT22;30135;47.866;-4.222;2023-02-13T13:38:13;10.60;96.00
44431;DHT22;30135;47.866;-4.222;2023-02-13T13:43:49;10.70;96.20
44431;DHT22;30135;47.866;-4.222;2023-02-13T13:49:48;10.70;96.60
44431;DHT22;30135;47.866;-4.222;2023-02-13T13:54:59;10.80;96.80
44431;DHT22;30135;47.866;-4.222;2023-02-13T14:05:29;11.00;97.30
44431;DHT22;30135;47.866;-4.222;2023-02-13T14:07:59;11.00;97.40
44431;DHT22;30135;47.866;-4.222;2023-02-13T14:13:38;11.10;97.40
44431;DHT22;30135;47.866;-4.222;2023-02-13T14:16:09;11.10;97.80
44431;DHT22;30135;47.866;-4.222;2023-02-13T14:18:36;11.10;97.70
44431;DHT22;30135;47.866;-4.222;2023-02-13T14:21:04;11.10;97.80
44431;DHT22;30135;47.866;-4.222;2023-02-13T14:26:29;11.30;98.10
44431;DHT22;30135;47.866;-4.222;2023-02-13T14:29:32;11.30;98.60
44431;DHT22;30135;47.866;-4.222;2023-02-13T14:32:01;11.40;99.00
44431;DHT22;30135;47.866;-4.222;2023-02-13T14:34:35;11.40;98.70
44431;DHT22;30135;47.866;-4.222;2023-02-13T14:37:14;11.60;98.90
44431;DHT22;30135;47.866;-4.222;2023-02-13T14:42:52;11.70;99.50
44431;DHT22;30135;47.866;-4.222;2023-02-13T14:45:48;11.70;99.10
44431;DHT22;30135;47.866;-4.222;2023-02-13T14:48:19;11.80;99.80
44431;DHT22;30135;47.866;-4.222;2023-02-13T14:50:56;11.90;99.30
44431;DHT22;30135;47.866;-4.222;2023-02-13T14:53:32;11.90;99.40
44431;DHT22;30135;47.866;-4.222;2023-02-13T14:56:19;12.00;99.30
44431;DHT22;30135;47.866;-4.222;2023-02-13T15:01:29;12.20;99.60
44431;DHT22;30135;47.866;-4.222;2023-02-13T15:04:37;12.20;99.60
44431;DHT22;30135;47.866;-4.222;2023-02-13T15:07:02;12.30;99.50
44431;DHT22;30135;47.866;-4.222;2023-02-13T15:09:40;12.30;99.40
44431;DHT22;30135;47.866;-4.222;2023-02-13T15:12:34;12.40;99.30
44431;DHT22;30135;47.866;-4.222;2023-02-13T15:15:22;12.40;99.40
44431;DHT22;30135;47.866;-4.222;2023-02-13T15:18:00;12.40;99.20
44431;DHT22;30135;47.866;-4.222;2023-02-13T15:20:34;12.50;99.20
44431;DHT22;30135;47.866;-4.222;2023-02-13T15:23:04;12.50;99.20
44431;DHT22;30135;47.866;-4.222;2023-02-13T15:25:38;12.50;99.00
44431;DHT22;30135;47.866;-4.222;2023-02-13T15:28:07;12.50;99.10
44431;DHT22;30135;47.866;-4.222;2023-02-13T15:30:37;12.60;99.10
44431;DHT22;30135;47.866;-4.222;2023-02-13T15:33:14;12.60;99.10
44431;DHT22;30135;47.866;-4.222;2023-02-13T15:35:41;12.70;99.10
44431;DHT22;30135;47.866;-4.222;2023-02-13T15:41:22;12.80;98.90
44431;DHT22;30135;47.866;-4.222;2023-02-13T15:43:55;12.80;98.80
44431;DHT22;30135;47.866;-4.222;2023-02-13T15:46:38;12.80;98.70
44431;DHT22;30135;47.866;-4.222;2023-02-13T15:49:15;12.90;98.70
44431;DHT22;30135;47.866;-4.222;2023-02-13T15:51:43;13.00;98.60
44431;DHT22;30135;47.866;-4.222;2023-02-13T15:54:30;13.00;98.60
44431;DHT22;30135;47.866;-4.222;2023-02-13T15:57:05;13.00;98.40
44431;DHT22;30135;47.866;-4.222;2023-02-13T15:59:36;13.00;98.40
44431;DHT22;30135;47.866;-4.222;2023-02-13T16:02:08;13.10;98.40
44431;DHT22;30135;47.866;-4.222;2023-02-13T16:04:38;13.10;98.30
44431;DHT22;30135;47.866;-4.222;2023-02-13T16:07:09;13.20;98.20
44431;DHT22;30135;47.866;-4.222;2023-02-13T16:09:37;13.20;98.00
44431;DHT22;30135;47.866;-4.222;2023-02-13T16:12:18;13.10;97.90
44431;DHT22;30135;47.866;-4.222;2023-02-13T16:14:55;13.10;97.70
44431;DHT22;30135;47.866;-4.222;2023-02-13T16:17:39;13.10;97.80
44431;DHT22;30135;47.866;-4.222;2023-02-13T16:22:37;13.10;97.70
44431;DHT22;30135;47.866;-4.222;2023-02-13T16:27:46;13.10;97.50
44431;DHT22;30135;47.866;-4.222;2023-02-13T16:35:51;13.10;97.30
44431;DHT22;30135;47.866;-4.222;2023-02-13T16:38:32;13.00;97.30
44431;DHT22;30135;47.866;-4.222;2023-02-13T16:43:46;13.00;97.10
44431;DHT22;30135;47.866;-4.222;2023-02-13T16:56:25;12.90;97.10
44431;DHT22;30135;47.866;-4.222;2023-02-13T16:59:19;12.90;97.00
44431;DHT22;30135;47.866;-4.222;2023-02-13T17:02:02;12.80;97.00
44431;DHT22;30135;47.866;-4.222;2023-02-13T17:04:37;12.80;97.00
44431;DHT22;30135;47.866;-4.222;2023-02-13T17:07:13;12.80;97.00
44431;DHT22;30135;47.866;-4.222;2023-02-13T17:09:41;12.70;97.00
44431;DHT22;30135;47.866;-4.222;2023-02-13T17:12:17;12.70;96.90
44431;DHT22;30135;47.866;-4.222;2023-02-13T17:14:44;12.70;96.80
44431;DHT22;30135;47.866;-4.222;2023-02-13T17:17:16;12.60;96.80
44431;DHT22;30135;47.866;-4.222;2023-02-13T17:19:44;12.60;96.90
44431;DHT22;30135;47.866;-4.222;2023-02-13T17:22:38;12.60;96.90
44431;DHT22;30135;47.866;-4.222;2023-02-13T17:25:08;12.60;96.80
44431;DHT22;30135;47.866;-4.222;2023-02-13T17:27:40;12.50;96.70
44431;DHT22;30135;47.866;-4.222;2023-02-13T17:30:22;12.50;96.80
44431;DHT22;30135;47.866;-4.222;2023-02-13T17:32:58;12.50;96.80
44431;DHT22;30135;47.866;-4.222;2023-02-13T17:35:29;12.50;96.90
44431;DHT22;30135;47.866;-4.222;2023-02-13T17:37:55;12.40;96.90
44431;DHT22;30135;47.866;-4.222;2023-02-13T17:40:23;12.40;96.80
44431;DHT22;30135;47.866;-4.222;2023-02-13T17:42:55;12.40;96.80
44431;DHT22;30135;47.866;-4.222;2023-02-13T17:45:23;12.40;96.80
44431;DHT22;30135;47.866;-4.222;2023-02-13T17:47:51;12.30;96.80
44431;DHT22;30135;47.866;-4.222;2023-02-13T17:50:18;12.30;96.80
44431;DHT22;30135;47.866;-4.222;2023-02-13T17:52:46;12.20;96.80
44431;DHT22;30135;47.866;-4.222;2023-02-13T17:55:23;12.20;96.90
44431;DHT22;30135;47.866;-4.222;2023-02-13T17:57:52;12.20;96.80
44431;DHT22;30135;47.866;-4.222;2023-02-13T18:00:19;12.20;96.90
44431;DHT22;30135;47.866;-4.222;2023-02-13T18:02:47;12.10;96.90
44431;DHT22;30135;47.866;-4.222;2023-02-13T18:05:15;12.10;96.80
44431;DHT22;30135;47.866;-4.222;2023-02-13T18:07:42;12.10;96.80
44431;DHT22;30135;47.866;-4.222;2023-02-13T18:10:18;12.10;96.70
44431;DHT22;30135;47.866;-4.222;2023-02-13T18:12:50;12.00;96.60
44431;DHT22;30135;47.866;-4.222;2023-02-13T18:15:16;12.00;96.60
44431;DHT22;30135;47.866;-4.222;2023-02-13T18:17:43;12.00;96.50
44431;DHT22;30135;47.866;-4.222;2023-02-13T18:20:13;11.90;96.40
44431;DHT22;30135;47.866;-4.222;2023-02-13T18:22:42;11.90;96.40
44431;DHT22;30135;47.866;-4.222;2023-02-13T18:25:09;11.80;96.30
44431;DHT22;30135;47.866;-4.222;2023-02-13T18:27:36;11.80;96.20
44431;DHT22;30135;47.866;-4.222;2023-02-13T18:30:03;11.70;96.20
44431;DHT22;30135;47.866;-4.222;2023-02-13T18:32:30;11.70;96.20
44431;DHT22;30135;47.866;-4.222;2023-02-13T18:34:56;11.60;96.10
44431;DHT22;30135;47.866;-4.222;2023-02-13T18:37:22;11.60;96.00
44431;DHT22;30135;47.866;-4.222;2023-02-13T18:39:48;11.60;96.00
44431;DHT22;30135;47.866;-4.222;2023-02-13T18:42:14;11.50;95.90
44431;DHT22;30135;47.866;-4.222;2023-02-13T18:44:40;11.50;95.90
44431;DHT22;30135;47.866;-4.222;2023-02-13T18:47:06;11.40;95.80
44431;DHT22;30135;47.866;-4.222;2023-02-13T18:49:35;11.40;95.80
44431;DHT22;30135;47.866;-4.222;2023-02-13T18:52:01;11.40;95.80